aussie ACE2'S WEATHER STATIONaussie

Speaker Icon Turns Ambient Background Sounds ON/OFF
Select which page style from below(a cookie will remember your selection for future use for style)
Standard Style Theme Current Conditions Style Changer

Latitude S 35° 06' 39"   Longitude E 138° 31' 40"   Elevation 102 m

OBSERVATIONS  0 - 24  HOURS

00-24 HOURS 24-48 HOURS 48-72 HOURS 72-96 HOURS 96-120 HOURS Navigation Menu

Date/Time
WST
temperature
°C
Dew Point
°C
Humidity
%
Wind Speed
km/h
Wind Gust
km/h
Wind
Direction
Barometer
mb
Rain Today
mm
22/07:30pm 23.0 12.3 51 5.0 13.3 1013.2 0.0
22/07:00pm 22.8 13.3 55 5.0 12.2 1013.2 0.0
22/06:30pm 23.2 14.0 56 3.6 13.3 1013.2 0.0
22/06:00pm 24.0 14.7 56 5.0 9.7 1013.2 0.0
22/05:30pm 25.6 15.3 53 2.5 6.1 1013.2 0.0
22/05:00pm 27.9 13.5 41 2.5 6.1 1013.2 0.0
22/04:30pm 29.0 4.5 21 0.0 3.6 1013.2 0.0
22/04:00pm 29.5 4.2 20 1.1 5.0 1013.2 0.0
22/03:30pm 29.1 4.6 21 1.1 5.0 1013.2 0.0
22/03:00pm 29.3 8.4 27 2.5 5.0 1013.2 0.0
22/02:30pm 32.5 8.1 22 2.5 7.2 1013.2 0.0
22/02:00pm 32.4 11.6 28 2.5 7.2 1013.2 0.0
22/01:30pm 33.2 9.9 24 1.1 6.1 1013.2 0.0
22/01:00pm 32.6 12.8 30 1.1 7.2 1013.2 0.0
22/12:30pm 32.2 13.4 32 2.5 5.0 1013.2 0.0
22/12:00pm 31.3 13.1 33 2.5 8.6 1013.2 0.0
22/11:30am 32.0 13.7 33 2.5 3.6 1013.2 0.0
22/11:00am 31.2 14.0 35 1.1 6.1 1013.2 0.0
22/10:30am 31.2 12.6 32 2.5 8.6 1013.2 0.0
22/10:00am 29.6 11.2 32 3.6 9.7 1013.2 0.0
22/09:30am 28.2 13.3 40 0.0 3.6 1013.2 0.0
22/09:00am 25.8 14.9 51 1.1 2.5 1013.2 0.0
22/08:30am 23.4 14.4 57 0.0 1.1 1013.2 0.0
22/08:00am 20.3 12.8 62 1.1 6.1 1013.2 0.0
22/07:30am 17.7 12.2 70 3.6 5.0 1013.2 0.0
22/07:00am 15.7 10.7 72 0.0 3.6 1013.2 0.0
22/06:30am 16.5 11.0 70 0.0 2.5 1013.2 0.0
22/06:00am 18.1 10.2 60 0.0 1.1 1013.2 0.0
22/05:30am 19.8 10.8 56 3.6 9.7 1013.2 0.0
22/05:00am 20.2 10.9 55 3.6 11.2 1013.2 0.0
22/04:30am 20.3 10.7 54 7.2 13.3 1013.2 0.0
22/04:00am 20.0 11.0 56 5.0 8.6 1013.2 0.0
22/03:30am 19.0 10.8 59 1.1 6.1 1013.2 0.0
22/03:00am 19.7 10.4 55 1.1 7.2 1013.2 0.0
22/02:30am 19.8 10.5 55 1.1 11.2 1013.2 0.0
22/02:00am 19.8 10.8 56 5.0 14.8 1013.2 0.0
22/01:30am 20.0 10.7 55 5.0 15.8 1013.2 0.0
22/01:00am 19.5 10.8 57 6.1 13.3 1013.2 0.0
22/12:30am 19.1 10.7 58 5.0 13.3 1013.2 0.0
22/12:00am 18.7 10.8 60 2.5 15.8 1013.2 0.0
21/11:30pm 18.6 10.9 61 7.2 12.2 1013.2 1.5
21/11:00pm 18.6 11.2 62 5.0 15.8 1013.2 1.5
21/10:30pm 18.4 11.5 64 5.0 9.7 1013.2 1.5
21/10:00pm 18.6 11.9 65 9.7 15.8 1013.2 1.5
21/09:30pm 18.2 12.6 70 3.6 9.7 1013.2 1.5
21/09:00pm 18.1 12.8 71 11.2 17.3 1013.2 1.5
21/08:30pm 18.2 12.9 71 6.1 12.2 1013.2 1.5
21/08:00pm 18.7 13.1 70 3.6 11.2 1013.2 1.5
21/07:30pm 18.8 13.4 71 2.5 11.2 1013.2 1.5
21/07:00pm 19.1 13.9 72 1.1 8.6 1013.2 1.5

OBSERVATIONS  24 - 48  HOURS

00-24 HOURS 24-48 HOURS 48-72 HOURS 72-96 HOURS 96-120 HOURS Navigation Menu

Date/Time
WST
temperature
°C
Dew Point
°C
Humidity
%
Wind Speed
km/h
Wind Gust
km/h
Wind
Direction
Barometer
mb
Rain Today
mm
21/07:30pm 18.8 13.4 71 2.5 11.2 1013.2 1.5
21/07:00pm 19.1 13.9 72 1.1 8.6 1013.2 1.5
21/06:30pm 19.9 14.3 70 1.1 6.1 1013.2 1.5
21/06:00pm 20.9 14.8 68 6.1 9.7 1013.2 1.5
21/05:30pm 22.7 15.1 62 3.6 9.7 1013.2 1.5
21/05:00pm 24.8 13.7 50 2.5 5.0 1013.2 1.5
21/04:30pm 24.9 13.2 48 3.6 6.1 1013.2 1.5
21/04:00pm 25.7 13.2 46 2.5 9.7 1013.2 1.5
21/03:30pm 26.1 13.9 47 3.6 7.2 1013.2 1.5
21/03:00pm 26.3 14.4 48 2.5 9.7 1013.2 1.5
21/02:30pm 28.6 13.7 40 5.0 14.8 1013.2 1.5
21/02:00pm 31.4 11.8 30 5.0 11.2 1013.2 1.5
21/01:30pm 33.9 9.9 23 1.1 7.2 1013.2 1.5
21/01:00pm 33.0 9.1 23 3.6 8.6 1013.2 1.5
21/12:30pm 34.3 11.5 25 1.1 3.6 1013.2 1.5
21/12:00pm 34.4 11.6 25 1.1 5.0 1013.2 1.5
21/11:30am 33.9 9.9 23 1.1 6.1 1013.2 1.5
21/11:00am 31.5 12.4 31 1.1 7.2 1013.2 1.5
21/10:30am 28.3 13.0 39 6.1 12.2 1013.2 1.5
21/10:00am 27.6 13.2 41 2.5 11.2 1013.2 1.5
21/09:30am 26.2 14.0 47 5.0 14.8 1013.2 1.5
21/09:00am 24.3 13.5 51 7.2 15.8 1013.2 1.5
21/08:30am 22.4 14.0 59 8.6 13.3 1013.2 1.5
21/08:00am 20.9 13.6 63 12.2 18.4 1013.2 1.5
21/07:30am 19.3 13.0 67 6.1 11.2 1013.2 1.5
21/07:00am 17.6 12.5 72 3.6 6.1 1013.2 1.5
21/06:30am 16.6 13.3 81 0.0 1.1 1013.2 1.5
21/06:00am 17.3 13.8 80 0.0 3.6 1013.2 1.5
21/05:30am 19.2 13.4 69 6.1 7.2 1013.2 1.5
21/05:00am 18.8 13.0 69 6.1 9.7 1013.2 1.5
21/04:30am 19.4 12.4 64 1.1 6.1 1013.2 1.5
21/04:00am 19.4 12.7 65 5.0 7.2 1013.2 1.5
21/03:30am 19.5 12.3 63 1.1 5.0 1013.2 1.5
21/03:00am 19.1 11.4 61 0.0 2.5 1013.2 1.5
21/02:30am 19.5 12.5 64 6.1 9.7 1013.2 1.5
21/02:00am 18.2 13.5 74 3.6 5.0 1013.2 1.2
21/01:30am 18.9 14.2 74 1.1 11.2 1013.2 1.2
21/01:00am 18.3 15.9 86 3.6 5.0 1013.2 1.2
21/12:30am 19.3 14.4 73 0.0 7.2 1013.2 1.2
21/12:00am 20.4 15.0 71 1.1 11.2 1013.2 0.0
20/11:30pm 24.5 12.5 47 11.2 19.4 1013.2 0.3
20/11:00pm 25.4 7.5 32 1.1 7.2 1013.2 0.3
20/10:30pm 25.2 7.4 32 6.1 7.2 1013.2 0.3
20/10:00pm 25.8 7.4 31 2.5 13.3 1013.2 0.3
20/09:30pm 25.4 8.0 33 3.6 11.2 1013.2 0.3
20/09:00pm 24.8 7.9 34 3.6 8.6 1013.2 0.3
20/08:30pm 24.2 8.6 37 3.6 7.2 1013.2 0.3
20/08:00pm 23.5 9.1 40 2.5 5.0 1013.2 0.3
20/07:30pm 23.2 9.2 41 2.5 5.0 1013.2 0.3
20/07:00pm 23.8 9.8 41 0.0 2.5 1013.2 0.3

OBSERVATIONS  48 - 72  HOURS

00-24 HOURS 24-48 HOURS 48-72 HOURS 72-96 HOURS 96-120 HOURS Navigation Menu

Date/Time
WST
temperature
°C
Dew Point
°C
Humidity
%
Wind Speed
km/h
Wind Gust
km/h
Wind
Direction
Barometer
mb
Rain Today
mm
20/07:30pm 23.2 9.2 41 2.5 5.0 1013.2 0.3
20/07:00pm 23.8 9.8 41 0.0 2.5 1013.2 0.3
20/06:30pm 24.8 10.7 41 2.5 5.0 1013.2 0.3
20/06:00pm 25.8 11.2 40 1.1 6.1 1013.2 0.3
20/05:30pm 27.2 12.1 39 1.1 7.2 1013.2 0.3
20/05:00pm 27.2 12.4 40 1.1 2.5 1013.2 0.3
20/04:31pm 28.2 10.9 34 0.0 1.1 1013.2 0.3
20/04:00pm 29.6 11.6 33 0.0 5.0 1013.2 0.3
20/03:30pm 29.1 11.7 34 1.1 13.3 1013.2 0.3
20/03:00pm 31.1 8.2 24 6.1 7.2 1013.2 0.3
20/02:30pm 31.3 12.7 32 1.1 5.0 1013.2 0.3
20/02:00pm 28.0 12.4 38 8.6 14.8 1013.2 0.3
20/01:30pm 31.3 7.7 23 1.1 7.2 1013.2 0.0
20/01:00pm 32.9 7.0 20 12.2 15.8 1013.2 0.0
20/12:30pm 32.2 7.8 22 6.1 13.3 1013.2 0.0
20/12:00pm 30.1 7.9 25 8.6 13.3 1013.2 0.0
20/11:30am 27.5 7.4 28 7.2 14.8 1013.2 0.0
20/11:00am 27.3 8.7 31 12.2 22.0 1013.2 0.0
20/10:30am 30.6 6.5 22 3.6 12.2 1013.2 0.0
20/10:00am 30.1 7.3 24 2.5 17.3 1013.2 0.0
20/09:30am 28.0 6.2 25 8.6 15.8 1013.2 0.0
20/09:00am 26.0 8.9 34 1.1 8.6 1013.2 0.0
20/08:30am 26.1 8.6 33 3.6 12.2 1013.2 0.0
20/08:00am 23.9 7.5 35 5.0 9.7 1013.2 0.0
20/07:30am 23.6 7.3 35 2.5 9.7 1013.2 0.0
20/07:00am 22.1 8.2 41 6.1 9.7 1013.2 0.0
20/06:30am 22.1 8.2 41 3.6 11.2 1013.2 0.0
20/06:00am 21.5 8.4 43 0.0 6.1 1013.2 0.0
20/05:30am 21.6 8.5 43 3.6 6.1 1013.2 0.0
20/05:00am 22.1 8.6 42 0.0 6.1 1013.2 0.0
20/04:30am 22.1 8.6 42 2.5 6.1 1013.2 0.0
20/04:00am 22.6 7.6 38 2.5 9.7 1013.2 0.0
20/03:30am 22.0 8.9 43 7.2 11.2 1013.2 0.0
20/03:00am 21.1 9.0 46 3.6 7.2 1013.2 0.0
20/02:30am 19.2 9.1 52 0.0 1.1 1013.2 0.0
20/02:00am 20.4 9.3 49 0.0 1.1 1013.2 0.0
20/01:30am 23.0 8.7 40 3.6 8.6 1013.2 0.0
20/01:00am 23.2 8.9 40 5.0 11.2 1013.2 0.0
20/12:30am 23.3 9.3 41 5.0 9.7 1013.2 0.0
20/12:00am 23.4 9.4 41 5.0 13.3 1013.2 0.0
19/11:30pm 22.7 9.5 43 3.6 8.6 1013.2 0.0
19/11:00pm 22.7 9.5 43 5.0 8.6 1013.2 0.0
19/10:30pm 22.6 9.7 44 1.1 9.7 1013.2 0.0
19/10:00pm 22.8 9.6 43 6.1 9.7 1013.2 0.0
19/09:30pm 22.9 10.0 44 8.6 12.2 1013.2 0.0
19/09:00pm 22.8 10.3 45 5.0 12.2 1013.2 0.0
19/08:30pm 22.5 10.6 47 3.6 7.2 1013.2 0.0
19/08:00pm 22.6 10.7 47 3.6 8.6 1013.2 0.0
19/07:30pm 22.8 10.3 45 7.2 8.6 1013.2 0.0
19/07:00pm 22.0 10.5 48 2.5 3.6 1013.2 0.0

OBSERVATIONS  72 - 96  HOURS

00-24 HOURS 24-48 HOURS 48-72 HOURS 72-96 HOURS 96-120 HOURS Navigation Menu

Date/Time
WST
temperature
°C
Dew Point
°C
Humidity
%
Wind Speed
km/h
Wind Gust
km/h
Wind
Direction
Barometer
mb
Rain Today
mm
19/07:30pm 22.8 10.3 45 7.2 8.6 1013.2 0.0
19/07:00pm 22.0 10.5 48 2.5 3.6 1013.2 0.0
19/06:30pm 22.5 9.7 44 1.1 2.5 1013.2 0.0
19/06:00pm 22.8 9.2 42 0.0 0.0 1013.2 0.0
19/05:30pm 25.1 8.6 35 0.0 0.0 1013.2 0.0
19/05:00pm 27.3 9.2 32 0.0 1.1 1013.2 0.0
19/04:30pm 27.8 8.7 30 0.0 2.5 1013.2 0.0
19/04:00pm 28.2 9.0 30 2.5 3.6 1013.2 0.0
19/03:30pm 28.1 9.4 31 1.1 8.6 1013.2 0.0
19/03:00pm 29.0 9.7 30 1.1 7.2 1013.2 0.0
19/02:30pm 33.1 8.6 22 0.0 6.1 1013.2 0.0
19/02:00pm 32.6 8.2 22 5.0 6.1 1013.2 0.0
19/01:30pm 32.7 8.9 23 1.1 6.1 1013.2 0.0
19/01:00pm 32.2 10.3 26 1.1 8.6 1013.2 0.0
19/12:30pm 32.3 11.5 28 1.1 6.1 1013.2 0.0
19/12:00pm 31.4 11.3 29 2.5 6.1 1013.2 0.0
19/11:30am 30.5 11.0 30 2.5 14.8 1013.2 0.0
19/11:00am 31.0 10.4 28 6.1 11.2 1013.2 0.0
19/10:30am 30.4 10.9 30 7.2 9.7 1013.2 0.0
19/10:00am 29.5 10.1 30 3.6 13.3 1013.2 0.0
19/09:30am 28.1 10.3 33 1.1 8.6 1013.2 0.0
19/09:00am 25.6 11.4 41 1.1 9.7 1013.2 0.0
19/08:30am 23.4 11.5 47 1.1 6.1 1013.2 0.0
19/08:00am 21.5 11.5 53 2.5 7.2 1013.2 0.0
19/07:30am 18.1 11.4 65 5.0 7.2 1013.2 0.0
19/07:00am 15.1 10.1 72 0.0 1.1 1013.2 0.0
19/06:30am 14.5 9.7 73 0.0 1.1 1013.2 0.0
19/06:00am 14.3 9.3 72 0.0 0.0 1013.2 0.0
19/05:30am 14.6 9.4 71 0.0 1.1 1013.2 0.0
19/05:00am 14.6 9.8 73 0.0 0.0 1013.2 0.0
19/04:30am 22.8 10.3 45 7.2 8.6 1013.2 0.0
19/04:00am 14.1 9.5 74 0.0 1.1 1013.2 0.0
19/03:30am 14.4 10.0 75 0.0 1.1 1013.2 0.0
19/03:00am 14.3 10.1 76 0.0 0.0 1013.2 0.0
19/02:30am 14.3 9.9 75 0.0 1.1 1013.2 0.0
19/02:00am 14.7 10.3 75 0.0 0.0 1013.2 0.0
19/01:30am 14.6 11.2 80 0.0 0.0 1013.2 0.0
19/01:00am 14.1 10.7 80 0.0 0.0 1013.2 0.0
19/12:30am 14.4 11.0 80 0.0 0.0 1013.2 0.0
19/12:00am 14.9 11.3 79 0.0 1.1 1013.2 0.0
18/11:30pm 15.5 11.3 76 0.0 1.1 1013.2 0.0
18/11:00pm 16.0 11.4 74 0.0 1.1 1013.2 0.0
18/10:30pm 16.4 11.6 73 0.0 1.1 1013.2 0.0
18/10:00pm 16.6 11.7 73 0.0 0.0 1013.2 0.0
18/09:30pm 16.9 11.8 72 0.0 1.1 1013.2 0.0
18/09:00pm 17.3 12.0 71 0.0 1.1 1013.2 0.0
18/08:30pm 17.4 12.1 71 0.0 3.6 1013.2 0.0
18/08:00pm 17.6 11.2 66 0.0 1.1 1013.2 0.0
18/07:30pm 17.4 12.1 71 0.0 2.5 1013.2 0.0
18/07:00pm 18.0 11.6 66 0.0 0.0 1013.2 0.0

OBSERVATIONS  96 - 120  HOURS

00-24 HOURS 24-48 HOURS 48-72 HOURS 72-96 HOURS 96-120 HOURS Navigation Menu

Date/Time
WST
temperature
°C
Dew Point
°C
Humidity
%
Wind Speed
km/h
Wind Gust
km/h
Wind
Direction
Barometer
mb
Rain Today
mm
18/07:30pm 17.4 12.1 71 0.0 2.5 1013.2 0.0
18/07:00pm 18.0 11.6 66 0.0 0.0 1013.2 0.0
18/06:30pm 18.8 11.1 61 0.0 0.0 1013.2 0.0
18/06:00pm 20.0 11.5 58 0.0 0.0 1013.2 0.0
18/05:30pm 22.1 12.1 53 0.0 6.1 1013.2 0.0
18/05:00pm 23.6 11.0 45 0.0 2.5 1013.2 0.0
18/04:30pm 24.4 11.4 44 0.0 5.0 1013.2 0.0
18/04:00pm 25.4 11.6 42 0.0 3.6 1013.2 0.0
18/03:30pm 25.7 11.8 42 2.5 6.1 1013.2 0.0
18/03:00pm 25.7 11.5 41 0.0 3.6 1013.2 0.0
18/02:30pm 25.7 11.5 41 0.0 3.6 1013.2 0.0
18/02:00pm 25.4 11.2 41 1.1 6.1 1013.2 0.0
18/01:30pm 29.0 10.2 31 2.5 6.1 1013.2 0.0
18/01:00pm 28.5 9.3 30 2.5 7.2 1013.2 0.0
18/12:30pm 29.7 10.3 30 2.5 14.8 1013.2 0.0
18/12:00pm 29.1 9.8 30 6.1 7.2 1013.2 0.0
18/11:30am 28.1 8.4 29 7.2 9.7 1013.2 0.0
18/11:00am 27.6 8.5 30 1.1 9.7 1013.2 0.0
18/10:30am 26.8 9.6 34 3.6 14.8 1013.2 0.0
18/10:00am 25.8 8.8 34 6.1 11.2 1013.2 0.0
18/09:30am 22.5 8.2 40 7.2 11.2 1013.2 0.0
18/09:00am 20.2 8.5 47 1.1 7.2 1013.2 0.0
18/08:30am 18.2 8.2 52 2.5 6.1 1013.2 0.0
18/08:00am 16.7 9.1 61 1.1 2.5 1013.2 0.0
18/07:30am 15.1 8.1 63 2.5 5.0 1013.2 0.0
18/07:00am 10.9 5.9 71 0.0 1.1 1013.2 0.0
18/06:30am 11.1 5.4 68 0.0 0.0 1013.2 0.0
18/06:00am 12.3 5.5 63 0.0 0.0 1013.2 0.0
18/05:30am 13.3 5.0 57 3.6 7.2 1013.2 0.0
18/05:00am 13.5 4.6 55 5.0 11.2 1013.2 0.0
18/04:30am 13.6 4.7 55 7.2 11.2 1013.2 0.0
18/04:00am 13.8 4.9 55 5.0 12.2 1013.2 0.0
18/03:30am 14.0 4.8 54 5.0 12.2 1013.2 0.0
18/03:00am 14.0 4.8 54 7.2 12.2 1013.2 0.0
18/02:30am 13.9 5.0 55 9.7 19.4 1013.2 0.0
18/02:00am 13.4 6.0 61 6.1 17.3 1013.2 0.0
18/01:30am 13.5 6.4 62 11.2 18.4 1013.2 0.0
18/01:00am 13.3 6.9 65 6.1 17.3 1013.2 0.0
18/12:30am 13.4 7.4 67 9.7 15.8 1013.2 0.0
18/12:00am 13.4 7.6 68 7.2 15.8 1013.2 0.0
17/11:30pm 13.2 8.1 71 2.5 12.2 1013.2 0.0
17/11:00pm 13.4 8.5 72 7.2 20.9 1013.2 0.0
17/10:30pm 13.3 8.8 74 5.0 11.2 1013.2 0.0
17/10:00pm 13.5 8.6 72 5.0 11.2 1013.2 0.0
17/09:30pm 13.5 8.6 72 2.5 12.2 1013.2 0.0
17/09:00pm 13.3 8.4 72 3.6 9.7 1013.2 0.0
17/08:30pm 13.4 8.3 71 3.6 11.2 1013.2 0.0
17/08:00pm 13.6 8.2 70 8.6 11.2 1013.2 0.0
17/07:30pm 13.9 8.3 69 7.2 11.2 1013.2 0.0
17/07:00pm 14.3 8.0 66 5.0 9.7 1013.2 0.0

00-24 HOURS 24-48 HOURS 48-72 HOURS 72-96 HOURS 96-120 HOURS Navigation Menu


PLEASE CONSIDER LIKING/SHARING ON FACEBOOK WITH LINK ABOVE
THANK YOU.

Check out my video archive on my YouTube channel which has all my time-lapse videos created
Please feel free to donate to help with improvements and keep this site going with the link below(PayPal)
Cumulus Top Weather Sites World Weather Websites Paulen Top 100 Weatherstation List

Page updated 22/04/2018 7:30 PM
powered by Cumulusv1.9.4 (1099)
Free counters!
Insect leftPhyllium MonteithiInsect Right
Visit my FaceBook group : Australian Leaf Insect Care/Information Sharing


Speaker Icon Turns Ambient Background Sounds ON/OFF